Time;durP1;ratioP1;P1;durP2;ratioP2;P2;SDS_P1;SDS_P2;PMS_P1;PMS_P2;Temp;Humidity;BMP_temperature;BMP_pressure;BME280_temperature;BME280_humidity;BME280_pressure;Samples;Min_cycle;Max_cycle;Signal;HPM_P1;HPM_P2
2022/06/26 00:01:14;;;;;;;5.40;4.95;;;15.80;99.90;;;;;;5074436;28;20334;-75
2022/06/26 00:03:41;;;;;;;7.43;5.25;;;15.70;99.90;;;;;;5074697;28;20197;-75
2022/06/26 00:06:09;;;;;;;5.82;5.32;;;15.70;99.90;;;;;;5074503;28;20212;-75
2022/06/26 00:08:36;;;;;;;6.30;5.70;;;15.50;99.90;;;;;;5074304;28;20652;-75
2022/06/26 00:11:03;;;;;;;6.07;5.47;;;15.40;99.90;;;;;;5074452;28;20197;-75
2022/06/26 00:13:29;;;;;;;6.47;5.90;;;15.30;99.90;;;;;;5074773;28;20254;-74
2022/06/26 00:15:56;;;;;;;6.80;6.15;;;15.30;99.90;;;;;;5074120;28;20224;-75
2022/06/26 00:18:23;;;;;;;6.40;5.80;;;15.30;99.90;;;;;;5074585;28;20197;-75
2022/06/26 00:20:49;;;;;;;6.93;6.27;;;15.20;99.90;;;;;;5074076;28;20197;-75
2022/06/26 00:23:17;;;;;;;7.40;6.53;;;15.20;99.90;;;;;;5074213;28;20631;-75
2022/06/26 00:25:44;;;;;;;7.10;6.07;;;15.20;99.90;;;;;;5074128;28;20193;-74
2022/06/26 00:28:11;;;;;;;6.20;5.70;;;15.10;99.90;;;;;;5073930;28;20230;-75
2022/06/26 00:30:37;;;;;;;6.80;5.83;;;15.10;99.90;;;;;;5073851;28;20193;-75
2022/06/26 00:33:04;;;;;;;6.30;5.70;;;15.10;99.90;;;;;;5074021;28;20197;-75
2022/06/26 00:35:31;;;;;;;7.53;5.87;;;15.10;99.90;;;;;;5073907;28;20224;-74
2022/06/26 00:37:57;;;;;;;5.83;5.33;;;15.10;99.90;;;;;;5073833;28;20197;-74
2022/06/26 00:40:25;;;;;;;6.03;5.43;;;15.00;99.90;;;;;;5073796;28;20250;-75
2022/06/26 00:42:52;;;;;;;5.70;5.20;;;15.00;99.90;;;;;;5073654;28;20273;-75
2022/06/26 00:45:19;;;;;;;7.17;5.87;;;14.90;99.90;;;;;;5073904;28;20201;-75
2022/06/26 00:47:46;;;;;;;5.80;5.30;;;14.90;99.90;;;;;;5073728;28;20201;-74
2022/06/26 00:50:13;;;;;;;6.43;5.70;;;15.10;99.90;;;;;;5073455;28;20556;-73
2022/06/26 00:52:41;;;;;;;6.00;5.50;;;15.10;99.90;;;;;;5073310;28;20200;-75
2022/06/26 00:55:10;;;;;;;6.17;5.67;;;15.00;99.90;;;;;;5072961;28;20228;-76
2022/06/26 00:57:38;;;;;;;7.50;5.80;;;14.90;99.90;;;;;;5073291;28;20655;-75
2022/06/26 01:00:06;;;;;;;6.03;5.53;;;14.90;99.90;;;;;;5073453;28;20200;-75
2022/06/26 01:02:33;;;;;;;7.73;7.00;;;15.10;99.90;;;;;;5073529;28;20251;-75
2022/06/26 01:04:59;;;;;;;10.23;8.63;;;15.00;99.90;;;;;;5073344;28;20235;-75
2022/06/26 01:07:26;;;;;;;11.47;8.40;;;14.90;99.90;;;;;;5073361;28;20258;-75
2022/06/26 01:09:53;;;;;;;6.30;5.70;;;14.80;99.90;;;;;;5073150;28;20258;-76
2022/06/26 01:12:20;;;;;;;6.67;6.07;;;14.70;99.90;;;;;;5073447;28;20552;-76
2022/06/26 01:14:48;;;;;;;6.35;5.82;;;14.70;99.90;;;;;;5073221;28;20193;-76
2022/06/26 01:17:15;;;;;;;6.27;5.70;;;14.80;99.90;;;;;;5073207;28;20208;-76
2022/06/26 01:19:42;;;;;;;6.53;5.83;;;14.90;99.90;;;;;;5073156;28;20205;-75
2022/06/26 01:22:08;;;;;;;6.90;6.20;;;14.90;99.90;;;;;;5073274;28;20710;-75
2022/06/26 01:24:37;;;;;;;6.83;6.10;;;14.80;99.90;;;;;;5072997;28;20223;-75
2022/06/26 01:27:04;;;;;;;6.83;6.07;;;14.90;99.90;;;;;;5072864;28;20203;-75
2022/06/26 01:29:31;;;;;;;7.33;6.57;;;14.80;99.90;;;;;;5073147;28;20201;-75
2022/06/26 01:31:58;;;;;;;7.20;6.30;;;14.80;99.90;;;;;;5073041;28;20201;-75
2022/06/26 01:34:24;;;;;;;6.40;5.23;;;14.90;99.90;;;;;;5073056;28;20205;-75
2022/06/26 01:36:51;;;;;;;6.60;6.00;;;14.90;99.90;;;;;;5072883;28;20232;-75
2022/06/26 01:39:19;;;;;;;6.77;6.13;;;15.00;99.90;;;;;;5072784;28;20598;-75
2022/06/26 01:41:49;;;;;;;6.20;5.60;;;14.90;99.90;;;;;;5072756;28;20263;-75
2022/06/26 01:44:16;;;;;;;6.77;6.10;;;14.90;99.90;;;;;;5072882;28;20197;-75
2022/06/26 01:46:43;;;;;;;6.23;5.73;;;14.90;99.90;;;;;;5072882;28;20201;-75
2022/06/26 01:49:09;;;;;;;7.00;5.70;;;14.90;99.90;;;;;;5072797;28;20254;-75
2022/06/26 01:51:37;;;;;;;12.43;8.93;;;14.90;99.90;;;;;;5072582;28;20730;-75
2022/06/26 01:54:04;;;;;;;11.40;9.17;;;14.90;99.90;;;;;;5072511;28;20233;-75
2022/06/26 01:56:30;;;;;;;12.67;8.00;;;14.80;99.90;;;;;;5072779;28;20294;-75
2022/06/26 01:58:58;;;;;;;7.53;6.83;;;14.80;99.90;;;;;;5072775;28;20204;-75
2022/06/26 02:01:25;;;;;;;8.17;6.93;;;14.80;99.90;;;;;;5072653;28;20231;-75
2022/06/26 02:03:52;;;;;;;7.83;6.60;;;14.70;99.90;;;;;;5072518;28;20270;-75
2022/06/26 02:06:18;;;;;;;10.50;7.37;;;14.70;99.90;;;;;;5074167;28;20201;-76
2022/06/26 02:08:45;;;;;;;8.07;6.97;;;14.70;99.90;;;;;;5076635;28;20722;-75
2022/06/26 02:13:57;;;;;;;9.83;7.50;;;14.60;99.90;;;;;;5076934;28;20196;-75
2022/06/26 02:16:27;;;;;;;10.97;7.43;;;14.50;99.90;;;;;;5076476;28;20268;-75
2022/06/26 02:18:55;;;;;;;10.50;7.33;;;14.60;99.90;;;;;;5076336;28;20200;-75
2022/06/26 02:21:24;;;;;;;7.90;7.10;;;14.60;99.90;;;;;;5076429;28;20209;-75
2022/06/26 02:23:53;;;;;;;7.80;7.03;;;14.60;99.90;;;;;;5076521;28;20661;-75
2022/06/26 02:26:21;;;;;;;8.10;7.07;;;14.50;99.90;;;;;;5076411;28;20197;-75
2022/06/26 02:28:48;;;;;;;9.93;7.43;;;14.50;99.90;;;;;;5076267;28;20204;-75
2022/06/26 02:31:16;;;;;;;7.70;7.00;;;14.50;99.90;;;;;;5076170;28;20234;-75
2022/06/26 02:33:43;;;;;;;8.50;7.60;;;14.50;99.90;;;;;;5076341;28;20200;-75
2022/06/26 02:36:10;;;;;;;8.33;7.53;;;14.40;99.90;;;;;;5076214;28;20224;-75
2022/06/26 02:38:38;;;;;;;7.77;7.00;;;14.40;99.90;;;;;;5076012;28;20721;-74
2022/06/26 02:41:05;;;;;;;8.20;7.47;;;14.40;99.90;;;;;;5076077;28;20203;-75
2022/06/26 02:43:32;;;;;;;8.83;7.97;;;14.40;99.90;;;;;;5076056;28;20197;-75
2022/06/26 02:45:59;;;;;;;9.43;7.90;;;14.30;99.90;;;;;;5076039;28;20201;-75
2022/06/26 02:48:27;;;;;;;8.80;7.87;;;14.30;99.90;;;;;;5075965;28;20250;-74
2022/06/26 02:50:53;;;;;;;8.60;7.70;;;14.30;99.90;;;;;;5075949;28;20255;-75
2022/06/26 02:53:20;;;;;;;12.80;8.33;;;14.30;99.90;;;;;;5075779;28;20221;-75
2022/06/26 02:55:47;;;;;;;12.10;8.23;;;14.20;99.90;;;;;;5075679;28;20278;-75
2022/06/26 02:58:13;;;;;;;10.53;8.03;;;14.30;99.90;;;;;;5075670;28;20193;-75
2022/06/26 03:00:41;;;;;;;11.30;8.87;;;14.20;99.90;;;;;;5075628;28;20239;-75
2022/06/26 03:03:07;;;;;;;10.63;8.07;;;14.20;99.90;;;;;;5075786;28;20221;-75
2022/06/26 03:05:35;;;;;;;11.27;8.57;;;14.20;99.90;;;;;;5075447;28;20648;-75
2022/06/26 03:08:02;;;;;;;8.93;8.03;;;14.10;99.90;;;;;;5075594;28;20205;-75
2022/06/26 03:10:29;;;;;;;10.53;7.97;;;14.10;99.90;;;;;;5075546;28;20254;-75
2022/06/26 03:12:55;;;;;;;11.40;9.20;;;14.10;99.90;;;;;;5075420;28;20205;-75
2022/06/26 03:15:22;;;;;;;14.63;9.30;;;14.10;99.90;;;;;;5075588;28;20262;-75
2022/06/26 03:17:49;;;;;;;11.53;8.90;;;14.20;99.90;;;;;;5074911;28;20250;-75
2022/06/26 03:20:18;;;;;;;9.63;8.13;;;14.20;99.90;;;;;;5075432;28;20200;-75
2022/06/26 03:22:46;;;;;;;10.27;8.80;;;14.10;99.90;;;;;;5075413;28;20198;-75
2022/06/26 03:25:13;;;;;;;12.40;8.33;;;14.10;99.90;;;;;;5075231;28;20725;-75
2022/06/26 03:27:40;;;;;;;11.07;8.30;;;14.10;99.90;;;;;;5075095;28;20212;-75
2022/06/26 03:30:09;;;;;;;11.23;7.93;;;14.20;99.90;;;;;;5075471;28;20200;-75
2022/06/26 03:32:36;;;;;;;10.20;8.00;;;14.20;99.90;;;;;;5075165;28;20197;-75
2022/06/26 03:35:04;;;;;;;8.83;7.60;;;14.20;99.90;;;;;;5075098;28;20262;-75
2022/06/26 03:37:30;;;;;;;8.77;7.87;;;14.20;99.90;;;;;;5074984;28;20274;-75
2022/06/26 03:39:58;;;;;;;12.13;7.67;;;14.20;99.90;;;;;;5074959;28;20244;-75
2022/06/26 03:42:25;;;;;;;6.67;6.00;;;14.20;99.90;;;;;;5074890;28;20686;-75
2022/06/26 03:44:52;;;;;;;6.23;5.63;;;14.20;99.90;;;;;;5074812;28;20653;-75
2022/06/26 03:47:18;;;;;;;5.67;5.17;;;14.00;99.90;;;;;;5074951;28;20197;-75
2022/06/26 03:49:46;;;;;;;7.10;5.40;;;14.00;99.90;;;;;;5074964;28;20255;-75
2022/06/26 03:52:13;;;;;;;5.37;4.93;;;14.10;99.90;;;;;;5074909;28;20668;-75
2022/06/26 03:54:39;;;;;;;5.80;5.30;;;14.20;99.90;;;;;;5074488;28;20290;-75
2022/06/26 03:57:07;;;;;;;7.30;5.80;;;14.30;99.90;;;;;;5074782;28;20286;-75
2022/06/26 03:59:34;;;;;;;6.50;5.40;;;14.40;99.90;;;;;;5075047;28;20197;-75
2022/06/26 04:02:01;;;;;;;6.73;5.60;;;14.50;99.90;;;;;;5074717;28;20205;-75
2022/06/26 04:04:27;;;;;;;7.87;5.37;;;14.60;99.90;;;;;;5074851;28;20641;-75
2022/06/26 04:06:54;;;;;;;7.10;5.77;;;14.70;99.90;;;;;;5074429;28;20196;-75
2022/06/26 04:09:21;;;;;;;5.80;5.20;;;14.90;99.90;;;;;;5074315;28;20197;-75
2022/06/26 04:11:47;;;;;;;9.97;5.33;;;15.00;99.90;;;;;;5074457;28;20197;-75
2022/06/26 04:14:15;;;;;;;7.30;5.40;;;15.10;99.90;;;;;;5074422;28;20262;-75
2022/06/26 04:16:42;;;;;;;6.37;5.70;;;15.20;99.90;;;;;;5074333;28;20221;-75
2022/06/26 04:19:08;;;;;;;7.57;5.40;;;15.20;99.90;;;;;;5074233;28;20251;-75
2022/06/26 04:21:35;;;;;;;6.10;5.50;;;15.40;99.90;;;;;;5074105;28;20649;-75
2022/06/26 04:24:02;;;;;;;5.77;4.80;;;15.40;99.90;;;;;;5074033;28;20201;-75
2022/06/26 04:26:28;;;;;;;6.60;5.33;;;15.50;99.90;;;;;;5074311;28;20197;-75
2022/06/26 04:28:55;;;;;;;5.63;5.13;;;15.60;99.90;;;;;;5072988;28;20197;-75
2022/06/26 04:31:23;;;;;;;6.63;5.23;;;15.80;99.90;;;;;;5074144;28;20246;-75
2022/06/26 04:33:49;;;;;;;8.80;6.67;;;15.90;99.90;;;;;;5074000;28;20193;-75
2022/06/26 04:36:16;;;;;;;5.57;5.03;;;16.00;99.90;;;;;;5073727;28;20271;-76
2022/06/26 04:38:43;;;;;;;7.00;5.63;;;16.10;99.90;;;;;;5073917;28;20266;-76
2022/06/26 04:43:54;;;;;;;6.57;5.32;;;16.30;99.90;;;;;;5073689;28;20294;-76
2022/06/26 04:46:22;;;;;;;7.88;5.57;;;16.50;99.90;;;;;;5073719;28;20197;-76
2022/06/26 04:48:49;;;;;;;11.90;7.55;;;16.60;99.90;;;;;;5073790;28;20270;-75
2022/06/26 04:51:15;;;;;;;11.65;6.45;;;16.70;99.90;;;;;;5073645;28;20629;-75
2022/06/26 04:53:42;;;;;;;9.88;5.43;;;16.80;99.90;;;;;;5073569;28;20229;-75
2022/06/26 04:56:08;;;;;;;9.20;5.67;;;16.90;99.90;;;;;;5073530;28;20217;-75
2022/06/26 04:58:35;;;;;;;9.60;6.22;;;17.00;99.90;;;;;;5073396;28;20197;-74
2022/06/26 05:01:02;;;;;;;10.13;6.25;;;17.20;99.90;;;;;;5073307;28;20648;-76
2022/06/26 05:03:30;;;;;;;10.32;6.82;;;17.30;99.90;;;;;;5073222;28;20197;-76
2022/06/26 05:05:57;;;;;;;7.65;5.70;;;17.40;99.90;;;;;;5073411;28;20201;-75
2022/06/26 05:08:23;;;;;;;10.10;6.20;;;17.40;99.90;;;;;;5073387;28;20201;-75
2022/06/26 05:10:50;;;;;;;8.32;5.45;;;17.60;99.90;;;;;;5073349;28;20545;-76
2022/06/26 05:13:16;;;;;;;8.77;5.00;;;17.70;99.90;;;;;;5073229;28;20193;-76
2022/06/26 05:15:43;;;;;;;7.13;4.80;;;17.80;99.90;;;;;;5073043;28;20201;-74
2022/06/26 05:18:10;;;;;;;5.85;4.85;;;17.90;99.90;;;;;;5072878;28;20220;-74
2022/06/26 05:20:38;;;;;;;8.88;4.60;;;18.00;99.90;;;;;;5073156;28;20203;-74
2022/06/26 05:23:07;;;;;;;6.18;4.60;;;18.10;99.90;;;;;;5073109;28;20193;-75
2022/06/26 05:25:34;;;;;;;8.02;4.28;;;18.30;99.90;;;;;;5072878;28;20595;-75
2022/06/26 05:28:01;;;;;;;6.03;4.00;;;18.30;99.90;;;;;;5073037;28;20295;-76
2022/06/26 05:30:27;;;;;;;5.15;3.90;;;18.50;99.90;;;;;;5072807;28;20231;-76
2022/06/26 05:32:54;;;;;;;4.63;4.18;;;18.60;99.90;;;;;;5073043;28;20199;-75
2022/06/26 05:35:21;;;;;;;5.65;4.50;;;18.50;99.90;;;;;;5073001;28;20200;-75
2022/06/26 05:37:49;;;;;;;6.10;4.10;;;18.50;99.90;;;;;;5072839;28;20233;-75
2022/06/26 05:40:15;;;;;;;7.45;4.40;;;18.50;99.90;;;;;;5072612;28;20303;-75
2022/06/26 05:42:42;;;;;;;5.07;3.67;;;18.60;99.90;;;;;;5073111;28;20222;-75
2022/06/26 05:45:09;;;;;;;4.78;3.92;;;18.80;99.90;;;;;;5072709;28;20247;-75
2022/06/26 05:47:36;;;;;;;6.53;3.45;;;18.90;99.90;;;;;;5072933;28;20201;-75
2022/06/26 05:50:03;;;;;;;3.78;3.30;;;19.00;99.90;;;;;;5072929;28;20197;-75
2022/06/26 05:52:29;;;;;;;3.20;2.90;;;19.20;99.90;;;;;;5072611;28;20595;-76
2022/06/26 05:54:57;;;;;;;3.72;3.28;;;19.30;99.90;;;;;;5072671;28;20259;-76
2022/06/26 05:57:25;;;;;;;4.35;3.20;;;19.40;99.90;;;;;;5072488;28;20216;-75
2022/06/26 05:59:51;;;;;;;4.32;3.03;;;19.50;99.90;;;;;;5072822;28;20220;-76
2022/06/26 06:02:18;;;;;;;3.50;3.20;;;19.50;99.90;;;;;;5072757;28;20241;-75
2022/06/26 06:04:45;;;;;;;5.60;3.13;;;19.60;99.90;;;;;;5072647;28;20262;-75
2022/06/26 06:07:11;;;;;;;3.08;2.80;;;19.80;99.90;;;;;;5072473;28;20680;-75
2022/06/26 06:09:38;;;;;;;3.05;2.85;;;19.90;99.90;;;;;;5072565;28;20197;-74
2022/06/26 06:12:07;;;;;;;3.45;2.40;;;20.00;99.90;;;;;;5072457;28;20201;-74
2022/06/26 06:14:33;;;;;;;2.92;2.67;;;20.10;99.90;;;;;;5072707;28;20201;-74
2022/06/26 06:17:35;;;;;;;3.45;2.50;;;20.20;99.90;;;;;;5072299;28;20637;-75
2022/06/26 06:19:48;;;;;;;2.55;2.35;;;20.30;99.90;;;;;;5072572;28;20258;-75
2022/06/26 06:22:14;;;;;;;2.95;2.08;;;20.40;99.90;;;;;;5072285;28;20652;-75
2022/06/26 06:24:41;;;;;;;2.63;2.42;;;20.60;99.90;;;;;;5072347;28;20201;-75
2022/06/26 06:27:09;;;;;;;2.75;2.10;;;20.70;99.90;;;;;;5072440;28;20197;-75
2022/06/26 06:29:36;;;;;;;2.20;2.00;;;20.80;99.90;;;;;;5072265;28;20648;-75
2022/06/26 06:32:02;;;;;;;2.83;2.25;;;20.90;99.90;;;;;;5072451;28;20197;-75
2022/06/26 06:34:29;;;;;;;2.50;1.85;;;20.90;99.90;;;;;;5072358;28;20194;-75
2022/06/26 06:36:56;;;;;;;2.45;2.25;;;21.20;99.90;;;;;;5072277;28;20271;-75
2022/06/26 06:39:22;;;;;;;2.10;2.00;;;21.20;99.90;;;;;;5072158;28;20652;-75
2022/06/26 06:41:50;;;;;;;2.92;2.30;;;21.30;99.90;;;;;;5072224;28;20209;-74
2022/06/26 06:44:18;;;;;;;2.15;1.95;;;21.50;99.90;;;;;;5072367;28;20201;-74
2022/06/26 06:46:44;;;;;;;2.17;1.98;;;21.60;99.90;;;;;;5072318;28;20246;-74
2022/06/26 06:49:11;;;;;;;2.30;2.10;;;21.70;99.90;;;;;;5072366;28;20238;-74
2022/06/26 06:51:38;;;;;;;2.50;1.90;;;21.80;99.90;;;;;;5072517;28;20209;-74
2022/06/26 06:54:04;;;;;;;3.03;2.17;;;22.00;99.90;;;;;;5075715;28;20282;-74
2022/06/26 06:56:31;;;;;;;2.38;1.80;;;22.10;99.90;;;;;;5075822;28;20196;-74
2022/06/26 06:58:58;;;;;;;2.17;1.80;;;22.40;99.90;;;;;;5075902;28;20247;-74
2022/06/26 07:01:26;;;;;;;2.22;1.95;;;22.50;99.90;;;;;;5075756;28;20197;-75
2022/06/26 07:03:52;;;;;;;2.67;1.77;;;22.60;99.90;;;;;;5075698;28;20242;-74
2022/06/26 07:06:19;;;;;;;2.08;1.65;;;22.60;99.90;;;;;;5075457;28;20659;-74
2022/06/26 07:08:46;;;;;;;2.35;2.00;;;22.60;99.90;;;;;;5075709;28;20247;-75
2022/06/26 07:11:12;;;;;;;5.07;1.70;;;22.60;99.90;;;;;;5075691;28;20197;-76
2022/06/26 07:13:39;;;;;;;2.75;1.90;;;22.40;99.90;;;;;;5075431;28;20714;-75
2022/06/26 07:16:06;;;;;;;2.38;2.08;;;22.40;99.90;;;;;;5075448;28;20537;-75
2022/06/26 07:18:34;;;;;;;3.95;1.95;;;22.30;99.90;;;;;;5075359;28;20221;-75
2022/06/26 07:21:00;;;;;;;3.63;2.08;;;22.30;99.90;;;;;;5075238;28;20675;-75
2022/06/26 07:23:27;;;;;;;2.47;2.00;;;22.40;99.90;;;;;;5075444;28;20193;-75
2022/06/26 07:25:55;;;;;;;2.88;2.10;;;22.50;99.90;;;;;;5075360;28;20197;-75
2022/06/26 07:28:22;;;;;;;3.35;1.90;;;22.60;99.90;;;;;;5075271;28;20204;-75
2022/06/26 07:30:49;;;;;;;2.95;1.90;;;22.70;99.90;;;;;;5075245;28;20197;-75
2022/06/26 07:36:01;;;;;;;1.92;1.67;;;22.80;99.90;;;;;;5075063;28;20192;-75
2022/06/26 07:38:28;;;;;;;2.30;1.80;;;22.90;99.90;;;;;;5075020;28;20225;-75
2022/06/26 07:40:55;;;;;;;2.13;1.77;;;23.00;99.90;;;;;;5074879;28;20200;-75
2022/06/26 07:43:21;;;;;;;2.47;1.92;;;23.20;99.90;;;;;;5074728;28;20266;-75
2022/06/26 07:45:48;;;;;;;2.08;1.60;;;23.20;99.90;;;;;;5074827;28;20300;-75
2022/06/26 07:48:15;;;;;;;2.95;2.00;;;23.30;99.90;;;;;;5074682;28;20652;-74
2022/06/26 07:50:42;;;;;;;1.80;1.70;;;23.30;99.90;;;;;;5074918;28;20193;-75
2022/06/26 07:53:10;;;;;;;2.97;1.70;;;23.40;99.90;;;;;;5074620;28;20259;-75
2022/06/26 07:55:37;;;;;;;2.08;1.60;;;23.50;99.90;;;;;;5074546;28;20598;-75
2022/06/26 07:58:04;;;;;;;1.95;1.70;;;23.60;99.90;;;;;;5074789;28;20224;-75
2022/06/26 08:00:30;;;;;;;1.85;1.75;;;23.80;99.90;;;;;;5074440;28;20652;-75
2022/06/26 08:03:04;;;;;;;2.83;2.00;;;24.00;99.90;;;;;;5074046;28;20537;-75
2022/06/26 08:05:31;;;;;;;1.70;1.60;;;24.00;99.90;;;;;;5074385;28;20645;-75
2022/06/26 08:07:57;;;;;;;1.70;1.40;;;24.10;99.90;;;;;;5074534;28;20201;-76
2022/06/26 08:10:25;;;;;;;2.47;1.70;;;24.20;99.90;;;;;;5074362;28;20255;-75
2022/06/26 08:12:52;;;;;;;1.70;1.60;;;24.30;99.90;;;;;;5074207;28;20600;-75
2022/06/26 08:15:18;;;;;;;2.35;2.15;;;24.40;99.90;;;;;;5074852;28;20201;-75
2022/06/26 08:17:45;;;;;;;2.15;2.00;;;24.60;99.90;;;;;;5074340;28;20216;-75
2022/06/26 08:20:12;;;;;;;3.67;1.98;;;24.80;99.90;;;;;;5074294;28;20274;-75
2022/06/26 08:22:39;;;;;;;1.83;1.70;;;25.00;99.90;;;;;;5074039;28;20656;-75
2022/06/26 08:25:06;;;;;;;3.15;1.85;;;25.10;99.90;;;;;;5074301;28;20243;-75
2022/06/26 08:27:34;;;;;;;4.68;2.10;;;25.10;99.90;;;;;;5073848;28;20201;-75
2022/06/26 08:30:01;;;;;;;2.40;1.92;;;25.40;99.90;;;;;;5074190;28;20254;-75
2022/06/26 08:32:27;;;;;;;3.00;2.15;;;25.60;99.90;;;;;;5074019;28;20197;-75
2022/06/26 08:34:54;;;;;;;3.15;2.20;;;25.80;99.90;;;;;;5074055;28;20242;-75
2022/06/26 08:37:21;;;;;;;2.20;2.00;;;25.90;99.90;;;;;;5073781;28;20225;-76
2022/06/26 08:39:48;;;;;;;3.10;2.00;;;26.10;99.90;;;;;;5073650;28;20200;-75
2022/06/26 08:42:14;;;;;;;1.92;1.83;;;26.20;99.90;;;;;;5073712;28;20201;-75
2022/06/26 08:44:45;;;;;;;3.25;1.77;;;26.40;99.90;;;;;;5073892;28;20204;-75
2022/06/26 08:47:12;;;;;;;1.85;1.75;;;26.50;99.90;;;;;;5073787;28;20231;-75
2022/06/26 08:49:40;;;;;;;2.28;1.95;;;26.70;99.90;;;;;;5073663;28;20201;-75
2022/06/26 08:52:10;;;;;;;4.60;1.95;;;26.90;99.90;;;;;;5073452;28;20652;-75
2022/06/26 08:54:37;;;;;;;1.60;1.50;;;26.60;99.90;;;;;;5073263;28;20631;-75
2022/06/26 08:57:05;;;;;;;1.70;1.60;;;26.90;99.90;;;;;;5073493;28;20250;-76
2022/06/26 08:59:33;;;;;;;2.00;1.80;;;26.80;99.90;;;;;;5073497;28;20197;-75
2022/06/26 09:02:01;;;;;;;2.10;1.90;;;26.60;99.90;;;;;;5073528;28;20197;-75
2022/06/26 09:04:28;;;;;;;2.10;1.42;;;26.60;99.90;;;;;;5073085;28;20201;-75
2022/06/26 09:06:55;;;;;;;1.90;1.70;;;26.80;99.90;;;;;;5073229;28;20254;-75
2022/06/26 09:09:23;;;;;;;6.78;1.55;;;27.00;99.90;;;;;;5072905;28;20229;-75
2022/06/26 09:11:51;;;;;;;1.50;1.40;;;27.50;99.90;;;;;;5073365;28;20196;-75
2022/06/26 09:14:18;;;;;;;1.60;1.50;;;27.80;96.40;;;;;;5072671;28;20656;-75
2022/06/26 09:16:46;;;;;;;1.75;1.50;;;28.20;95.40;;;;;;5073142;28;20204;-75
2022/06/26 09:19:16;;;;;;;1.58;1.48;;;28.50;93.10;;;;;;5073072;28;20221;-75
2022/06/26 09:21:43;;;;;;;2.60;1.42;;;28.50;90.90;;;;;;5072954;28;20201;-74
2022/06/26 09:24:12;;;;;;;2.13;1.60;;;28.70;89.90;;;;;;5072937;28;20741;-75
2022/06/26 09:26:39;;;;;;;1.30;1.20;;;28.90;86.00;;;;;;5073116;28;20193;-75
2022/06/26 09:29:10;;;;;;;2.58;1.33;;;29.10;79.50;;;;;;5072951;28;20675;-75
2022/06/26 09:31:38;;;;;;;1.90;1.52;;;29.30;78.00;;;;;;5072965;28;20263;-75
2022/06/26 09:34:05;;;;;;;1.65;1.40;;;29.20;76.50;;;;;;5072761;28;20204;-75
2022/06/26 09:36:33;;;;;;;1.75;1.40;;;29.70;78.50;;;;;;5073091;28;20201;-75
2022/06/26 09:39:00;;;;;;;1.73;1.40;;;30.20;75.00;;;;;;5072883;28;20220;-74
2022/06/26 09:41:31;;;;;;;1.50;1.40;;;30.50;70.80;;;;;;5073236;28;20197;-74
2022/06/26 09:43:58;;;;;;;1.83;1.35;;;31.10;66.40;;;;;;5072864;28;20250;-74
2022/06/26 09:46:30;;;;;;;1.30;1.20;;;31.40;61.90;;;;;;5072758;28;20197;-74
2022/06/26 09:48:58;;;;;;;3.33;1.92;;;31.50;58.10;;;;;;5072673;28;20208;-74
2022/06/26 09:51:25;;;;;;;1.40;1.30;;;31.70;57.80;;;;;;5073117;28;20291;-74
2022/06/26 09:53:54;;;;;;;3.67;1.30;;;31.90;58.40;;;;;;5072809;28;20228;-74
2022/06/26 09:56:21;;;;;;;1.70;1.33;;;32.40;55.80;;;;;;5072650;28;20716;-74
2022/06/26 09:58:48;;;;;;;1.58;1.30;;;32.80;55.20;;;;;;5072496;28;20682;-74
2022/06/26 10:06:46;;;;;;;1.38;1.27;;;32.40;52.80;;;;;;5072604;28;20200;-74
2022/06/26 10:09:17;;;;;;;1.40;1.30;;;32.60;51.80;;;;;;5072718;28;20204;-74
2022/06/26 10:11:45;;;;;;;2.13;1.42;;;33.00;50.70;;;;;;5072506;28;20204;-74
2022/06/26 10:14:17;;;;;;;2.25;1.40;;;33.20;49.70;;;;;;5072623;28;20201;-76
2022/06/26 10:17:05;;;;;;;2.95;1.85;;;33.10;47.90;;;;;;5072611;28;20204;-75
2022/06/26 10:19:39;;;;;;;3.05;1.42;;;32.90;48.20;;;;;;5072499;28;20224;-74
2022/06/26 10:22:06;;;;;;;3.85;1.35;;;32.90;49.00;;;;;;5072346;28;20262;-74
2022/06/26 10:24:34;;;;;;;2.65;1.30;;;33.60;48.40;;;;;;5072669;28;20204;-74
2022/06/26 10:27:03;;;;;;;1.40;1.30;;;34.10;46.90;;;;;;5073680;28;20192;-74
2022/06/26 10:29:34;;;;;;;1.30;1.20;;;34.30;46.00;;;;;;5076496;28;20200;-75
2022/06/26 10:32:01;;;;;;;2.85;1.30;;;33.80;44.50;;;;;;5076363;28;20230;-74
2022/06/26 10:34:28;;;;;;;1.75;1.40;;;33.80;43.60;;;;;;5076212;28;20200;-75
2022/06/26 10:37:00;;;;;;;2.45;1.50;;;32.70;44.30;;;;;;5076619;28;20252;-74
2022/06/26 10:39:45;;;;;;;1.63;1.30;;;32.40;46.10;;;;;;5076065;28;20220;-75
2022/06/26 10:45:29;;;;;;;2.78;1.40;;;31.10;47.20;;;;;;5033885;28;20212;-75
2022/06/26 10:47:58;;;;;;;2.05;1.30;;;31.20;46.80;;;;;;5069452;28;20262;-75
2022/06/26 10:50:34;;;;;;;1.50;1.30;;;32.10;46.90;;;;;;5076031;28;20192;-75
2022/06/26 10:53:14;;;;;;;1.70;1.23;;;32.40;47.70;;;;;;5075865;28;20232;-75
2022/06/26 10:55:43;;;;;;;1.30;1.20;;;32.50;46.50;;;;;;5076295;28;20643;-75
2022/06/26 10:58:10;;;;;;;6.50;1.30;;;32.20;46.20;;;;;;5075846;28;20220;-75
2022/06/26 11:00:36;;;;;;;4.53;1.60;;;33.00;45.90;;;;;;5075766;28;20234;-74
2022/06/26 11:03:13;;;;;;;1.30;1.20;;;32.90;45.80;;;;;;5075623;28;20197;-74
2022/06/26 11:05:49;;;;;;;1.40;1.30;;;34.10;44.10;;;;;;5075611;28;20200;-75
2022/06/26 11:08:23;;;;;;;2.55;1.60;;;34.90;41.70;;;;;;5075839;28;20257;-74
2022/06/26 11:10:51;;;;;;;2.20;1.30;;;36.40;39.00;;;;;;5075649;28;20652;-74
2022/06/26 11:13:18;;;;;;;1.50;1.40;;;36.10;37.20;;;;;;5075570;28;20196;-74
2022/06/26 11:15:45;;;;;;;1.30;1.15;;;35.60;36.80;;;;;;5075364;28;20204;-74
2022/06/26 11:18:12;;;;;;;1.50;1.17;;;35.40;36.40;;;;;;5075377;28;20273;-74
2022/06/26 11:20:50;;;;;;;2.00;1.30;;;36.20;35.80;;;;;;5075208;28;20251;-75
2022/06/26 11:23:22;;;;;;;1.38;1.27;;;35.90;35.30;;;;;;5075163;28;20615;-76
2022/06/26 11:25:55;;;;;;;2.17;1.33;;;36.10;34.90;;;;;;5075394;28;20200;-75
2022/06/26 11:28:26;;;;;;;1.10;1.08;;;35.80;33.10;;;;;;5075179;28;20235;-75
2022/06/26 11:30:53;;;;;;;2.25;1.40;;;35.50;34.90;;;;;;5074994;28;20204;-74
2022/06/26 11:33:25;;;;;;;1.70;1.27;;;35.80;34.00;;;;;;5075079;28;20632;-75
2022/06/26 11:35:52;;;;;;;1.70;1.17;;;35.90;33.20;;;;;;5076741;28;20200;-75
2022/06/26 11:38:19;;;;;;;2.75;1.35;;;35.30;32.50;;;;;;5074905;28;20216;-74
2022/06/26 11:40:47;;;;;;;1.30;1.10;;;35.20;33.00;;;;;;5074918;28;20200;-75
2022/06/26 11:43:16;;;;;;;1.60;1.35;;;34.10;33.40;;;;;;5074959;28;20199;-75
2022/06/26 11:45:43;;;;;;;2.95;1.65;;;33.70;34.20;;;;;;5074795;28;20196;-75
2022/06/26 11:48:13;;;;;;;1.58;1.48;;;33.30;35.50;;;;;;5075038;28;20196;-82
2022/06/26 11:50:40;;;;;;;1.30;1.20;;;34.00;34.30;;;;;;5074711;28;20559;-75
2022/06/26 11:53:07;;;;;;;2.97;1.17;;;35.20;33.40;;;;;;5074747;28;20250;-75
2022/06/26 11:55:34;;;;;;;1.50;1.25;;;36.40;32.10;;;;;;5074769;28;20258;-74
2022/06/26 11:58:02;;;;;;;1.30;1.07;;;37.10;30.50;;;;;;5074526;28;20201;-73
2022/06/26 12:00:31;;;;;;;3.40;1.30;;;38.30;29.20;;;;;;5074785;28;20205;-74
2022/06/26 12:02:57;;;;;;;1.40;1.20;;;38.80;28.80;;;;;;5074717;28;20193;-74
2022/06/26 12:05:27;;;;;;;1.08;1.02;;;40.30;27.00;;;;;;5074363;28;20197;-74
2022/06/26 12:07:54;;;;;;;2.60;1.30;;;41.30;24.50;;;;;;5074425;28;20201;-74
2022/06/26 12:10:30;;;;;;;1.33;1.10;;;41.70;24.10;;;;;;5074320;28;20207;-74
2022/06/26 12:12:57;;;;;;;1.30;1.20;;;42.00;22.90;;;;;;5074584;28;20200;-74
2022/06/26 12:15:24;;;;;;;1.50;1.40;;;42.00;21.90;;;;;;5074396;28;20197;-74
2022/06/26 12:17:58;;;;;;;1.67;1.50;;;42.40;21.70;;;;;;5074209;28;20709;-74
2022/06/26 12:20:27;;;;;;;1.48;1.33;;;43.00;21.20;;;;;;5074237;28;20224;-75
2022/06/26 12:22:56;;;;;;;1.40;1.30;;;43.30;20.60;;;;;;5074038;28;20663;-75
2022/06/26 12:25:27;;;;;;;2.58;1.33;;;43.10;19.20;;;;;;5074459;28;20250;-75
2022/06/26 12:27:54;;;;;;;1.88;1.40;;;43.30;18.90;;;;;;5074052;28;20571;-75
2022/06/26 12:30:22;;;;;;;1.77;1.65;;;43.20;18.50;;;;;;5074236;28;20254;-76
2022/06/26 12:32:49;;;;;;;1.60;1.50;;;44.10;18.60;;;;;;5074001;28;20242;-74
2022/06/26 12:35:17;;;;;;;1.60;1.50;;;44.60;17.40;;;;;;5074038;28;20200;-74
2022/06/26 12:37:44;;;;;;;1.60;1.50;;;44.50;17.00;;;;;;5073961;28;20201;-74
2022/06/26 12:40:12;;;;;;;1.70;1.40;;;44.60;16.50;;;;;;5073831;28;20220;-74
2022/06/26 12:42:39;;;;;;;1.70;1.60;;;45.10;15.80;;;;;;5073796;28;20201;-76
2022/06/26 12:45:06;;;;;;;1.40;1.30;;;43.30;16.10;;;;;;5073653;28;20200;-74
2022/06/26 12:47:33;;;;;;;2.08;1.30;;;42.50;17.00;;;;;;5073761;28;20200;-76
2022/06/26 12:50:00;;;;;;;1.50;1.40;;;44.00;16.40;;;;;;5072900;28;20196;-76
2022/06/26 12:52:28;;;;;;;1.40;1.30;;;42.20;16.30;;;;;;5073561;28;20648;-74
2022/06/26 12:54:55;;;;;;;1.30;1.20;;;41.20;17.10;;;;;;5073414;28;20292;-74
2022/06/26 12:57:22;;;;;;;1.30;1.20;;;39.20;18.20;;;;;;5073583;28;20201;-74
2022/06/26 12:59:48;;;;;;;1.52;1.40;;;37.90;19.60;;;;;;5073467;28;20254;-75
2022/06/26 13:02:15;;;;;;;1.20;1.10;;;39.90;19.70;;;;;;5073424;28;20246;-75
2022/06/26 13:04:41;;;;;;;1.30;1.20;;;41.90;17.40;;;;;;5073308;28;20556;-75